Time;durP1;ratioP1;P1;durP2;ratioP2;P2;SDS_P1;SDS_P2;PMS_P1;PMS_P2;Temp;Humidity;BMP_temperature;BMP_pressure;BME280_temperature;BME280_humidity;BME280_pressure;Samples;Min_cycle;Max_cycle;Signal;HPM_P1;HPM_P2
2023/04/09 00:01:45;;;;;;;;;;;;;;;;;;;;;
2023/04/09 00:18:45;;;;;;;15.80;14.40;;;;;;;;;;5009324;28;20936;-77
2023/04/09 00:21:36;;;;;;;16.03;14.53;;;;;;;;;;5016834;28;20459;-76
2023/04/09 00:27:30;;;;;;;15.70;14.30;;;;;;;;;;5013690;28;20487;-76
2023/04/09 00:33:03;;;;;;;17.57;15.67;;;;;;;;;;5016674;28;20444;-77
2023/04/09 00:35:37;;;;;;;18.63;16.83;;;;;;;;;;5015746;28;20475;-77
2023/04/09 00:38:37;;;;;;;17.93;16.10;;;;;;;;;;5014574;28;20478;-77
2023/04/09 00:41:14;;;;;;;16.90;15.10;;;;;;;;;;5014147;28;20470;-77
2023/04/09 00:44:01;;;;;;;17.87;16.17;;;;;;;;;;5014267;28;20542;-76
2023/04/09 00:46:52;;;;;;;16.17;14.67;;;;;;;;;;5014147;28;20478;-76
2023/04/09 00:49:39;;;;;;;16.60;15.10;;;;;;;;;;5015231;28;20591;-77
2023/04/09 00:52:23;;;;;;;17.53;16.03;;;;;;;;;;5014411;28;20485;-77
2023/04/09 00:54:53;;;;;;;15.80;14.30;;;;;;;;;;5019654;28;20455;-77
2023/04/09 00:57:29;;;;;;;17.30;15.47;;;;;;;;;;5019032;28;20478;-77
2023/04/09 01:00:10;;;;;;;15.80;14.40;;;;;;;;;;5018745;28;20481;-77
2023/04/09 01:02:52;;;;;;;15.67;14.27;;;;;;;;;;5018538;28;20443;-77
2023/04/09 01:05:35;;;;;;;16.20;14.77;;;;;;;;;;5019401;28;20450;-77
2023/04/09 01:08:12;;;;;;;17.43;15.73;;;;;;;;;;5017935;28;20513;-76
2023/04/09 01:10:58;;;;;;;16.30;14.77;;;;;;;;;;5019374;28;20558;-77
2023/04/09 01:16:23;;;;;;;15.90;14.40;;;;;;;;;;5017888;28;20668;-77
2023/04/09 01:19:04;;;;;;;16.73;15.23;;;;;;;;;;5018468;28;20548;-77
2023/04/09 01:25:03;;;;;;;16.90;15.40;;;;;;;;;;5017526;28;20441;-76
2023/04/09 01:27:43;;;;;;;16.03;14.63;;;;;;;;;;5017011;28;20516;-76
2023/04/09 01:30:45;;;;;;;;;;;;;;;;;;;;;
2023/04/09 01:33:23;;;;;;;17.00;15.40;;;;;;;;;;5017240;28;20430;-75
2023/04/09 01:36:09;;;;;;;17.63;15.97;;;;;;;;;;5017186;28;20820;-76
2023/04/09 01:38:50;;;;;;;16.07;14.57;;;;;;;;;;5017346;28;20489;-76
2023/04/09 01:41:26;;;;;;;18.27;16.40;;;;;;;;;;5016633;28;20443;-75
2023/04/09 01:44:20;;;;;;;18.43;16.63;;;;;;;;;;5016097;28;20501;-78
2023/04/09 01:46:56;;;;;;;18.63;17.03;;;;;;;;;;5016451;28;20554;-76
2023/04/09 01:49:35;;;;;;;19.20;17.30;;;;;;;;;;5017567;28;20998;-75
2023/04/09 01:52:07;;;;;;;19.37;17.50;;;;;;;;;;5017646;28;20887;-77
2023/04/09 01:57:31;;;;;;;19.40;17.60;;;;;;;;;;5018243;28;20479;-76
2023/04/09 02:00:02;;;;;;;17.90;16.27;;;;;;;;;;5018590;28;20454;-76
2023/04/09 02:02:47;;;;;;;18.60;16.90;;;;;;;;;;5016698;28;20451;-76
2023/04/09 02:11:26;;;;;;;18.27;16.70;;;;;;;;;;5013843;28;20846;-77
2023/04/09 02:20:03;;;;;;;16.60;15.10;;;;;;;;;;5006184;28;20507;-75
2023/04/09 02:25:37;;;;;;;18.33;16.53;;;;;;;;;;4999506;28;20438;-77
2023/04/09 02:28:16;;;;;;;18.30;16.60;;;;;;;;;;5016854;28;20453;-76
2023/04/09 02:30:45;;;;;;;16.67;15.10;;;;;;;;;;5017658;28;20455;-76
2023/04/09 02:33:19;;;;;;;18.83;17.07;;;;;;;;;;5017240;28;20868;-76
2023/04/09 02:35:53;;;;;;;19.50;17.60;;;;;;;;;;5017437;28;20494;-76
2023/04/09 02:38:27;;;;;;;18.73;17.03;;;;;;;;;;5018964;28;20499;-76
2023/04/09 02:41:02;;;;;;;19.80;17.87;;;;;;;;;;5018634;28;20530;-77
2023/04/09 02:43:45;;;;;;;18.40;16.80;;;;;;;;;;5019105;28;20485;-76
2023/04/09 02:46:26;;;;;;;18.60;16.83;;;;;;;;;;5018164;28;20487;-76
2023/04/09 02:49:07;;;;;;;19.07;17.27;;;;;;;;;;5019207;28;20447;-77
2023/04/09 02:51:53;;;;;;;18.10;16.47;;;;;;;;;;5021103;28;20463;-76
2023/04/09 02:54:42;;;;;;;18.83;17.03;;;;;;;;;;5026140;28;20458;-77
2023/04/09 02:57:37;;;;;;;;;;;;;;;;;;;;;
2023/04/09 03:00:17;;;;;;;19.97;18.13;;;;;;;;;;5021110;28;20432;-77
2023/04/09 03:02:58;;;;;;;20.27;18.37;;;;;;;;;;5021238;28;20519;-77
2023/04/09 03:05:38;;;;;;;19.57;17.87;;;;;;;;;;5023858;28;20467;-76
2023/04/09 03:08:34;;;;;;;18.93;17.13;;;;;;;;;;5023046;28;20443;-76
2023/04/09 03:14:21;;;;;;;20.00;18.20;;;;;;;;;;5017455;28;20442;-77
2023/04/09 03:16:55;;;;;;;21.07;18.87;;;;;;;;;;5015010;28;20471;-77
2023/04/09 03:19:38;;;;;;;18.40;16.80;;;;;;;;;;5016334;28;20491;-77
2023/04/09 03:22:21;;;;;;;19.67;17.97;;;;;;;;;;5016720;28;20463;-75
2023/04/09 03:25:15;;;;;;;19.20;17.40;;;;;;;;;;5015639;28;20482;-77
2023/04/09 03:28:07;;;;;;;;;;;;;;;;;;;;;
2023/04/09 03:30:46;;;;;;;19.93;18.13;;;;;;;;;;5015219;28;20634;-77
2023/04/09 03:33:57;;;;;;;18.10;16.50;;;;;;;;;;5015563;28;20813;-77
2023/04/09 03:36:39;;;;;;;18.23;16.60;;;;;;;;;;5016856;28;20482;-77
2023/04/09 03:42:41;;;;;;;18.80;17.07;;;;;;;;;;5018556;28;20451;-76
2023/04/09 03:45:40;;;;;;;20.23;18.10;;;;;;;;;;5010488;28;20450;-77
2023/04/09 03:51:11;;;;;;;18.43;16.80;;;;;;;;;;5019141;28;20452;-76
2023/04/09 03:54:13;;;;;;;19.70;17.80;;;;;;;;;;5020786;28;20547;-77
2023/04/09 03:59:44;;;;;;;19.33;16.87;;;;;;;;;;5013563;28;20475;-76
2023/04/09 04:02:42;;;;;;;18.90;17.20;;;;;;;;;;5016090;28;20565;-78
2023/04/09 04:05:16;;;;;;;18.50;16.80;;;;;;;;;;5014879;28;20448;-76
2023/04/09 04:07:53;;;;;;;19.27;17.50;;;;;;;;;;5015034;28;20452;-76
2023/04/09 04:10:29;;;;;;;18.93;17.13;;;;;;;;;;5015190;28;20458;-76
2023/04/09 04:13:14;;;;;;;18.77;17.07;;;;;;;;;;5016404;28;20542;-75
2023/04/09 04:15:48;;;;;;;18.30;16.57;;;;;;;;;;5018479;28;20547;-76
2023/04/09 04:18:28;;;;;;;18.23;16.60;;;;;;;;;;5019116;28;21005;-77
2023/04/09 04:21:03;;;;;;;19.50;17.60;;;;;;;;;;5023330;28;20463;-75
2023/04/09 04:26:48;;;;;;;20.07;18.33;;;;;;;;;;4992393;28;20550;-77
2023/04/09 04:29:56;;;;;;;21.07;19.10;;;;;;;;;;5022128;28;20448;-76
2023/04/09 04:32:34;;;;;;;18.93;17.13;;;;;;;;;;5020650;28;20526;-75
2023/04/09 04:35:33;;;;;;;19.83;17.93;;;;;;;;;;5002562;28;20811;-75
2023/04/09 04:38:15;;;;;;;19.40;17.50;;;;;;;;;;5016841;28;20537;-76
2023/04/09 04:41:09;;;;;;;19.40;17.40;;;;;;;;;;5024192;28;20463;-77
2023/04/09 04:43:59;;;;;;;20.87;18.87;;;;;;;;;;5023232;28;20474;-77
2023/04/09 04:46:30;;;;;;;19.53;17.73;;;;;;;;;;5023945;28;20486;-75
2023/04/09 04:49:07;;;;;;;18.70;17.00;;;;;;;;;;5024113;28;20458;-76
2023/04/09 04:51:45;;;;;;;19.33;17.53;;;;;;;;;;5016809;28;20483;-76
2023/04/09 04:54:24;;;;;;;19.47;17.60;;;;;;;;;;5016355;28;20451;-76
2023/04/09 04:57:03;;;;;;;19.50;17.70;;;;;;;;;;5023270;28;20506;-76
2023/04/09 04:59:52;;;;;;;19.33;17.43;;;;;;;;;;5030041;28;20470;-76
2023/04/09 05:02:44;;;;;;;19.87;18.07;;;;;;;;;;5028968;28;20456;-75
2023/04/09 05:05:14;;;;;;;19.53;17.53;;;;;;;;;;5026086;28;20472;-76
2023/04/09 05:20:25;;;;;;;18.67;16.87;;;;;;;;;;4799713;29;20528;-76
2023/04/09 05:26:37;;;;;;;17.83;16.17;;;;;;;;;;4841188;29;20947;-76
2023/04/09 05:29:38;;;;;;;18.73;16.83;;;;;;;;;;5001015;28;20443;-76
2023/04/09 05:32:30;;;;;;;16.30;14.80;;;;;;;;;;4927450;29;20427;-77
2023/04/09 05:35:06;;;;;;;18.40;16.70;;;;;;;;;;4925419;29;20456;-76
2023/04/09 05:41:06;;;;;;;;;;;;;;;;;;;;;
2023/04/09 05:49:30;;;;;;;19.20;17.20;;;;;;;;;;4913127;29;20559;-78
2023/04/09 05:52:00;;;;;;;18.93;17.20;;;;;;;;;;5003403;28;20463;-77
2023/04/09 05:54:29;;;;;;;20.03;17.93;;;;;;;;;;5025981;28;20518;-77
2023/04/09 05:59:50;;;;;;;19.60;17.70;;;;;;;;;;5024613;28;20522;-76
2023/04/09 06:02:34;;;;;;;18.73;17.03;;;;;;;;;;5026741;28;20447;-77
2023/04/09 06:05:05;;;;;;;18.10;16.40;;;;;;;;;;5028710;28;20451;-76
2023/04/09 06:10:25;;;;;;;19.47;17.53;;;;;;;;;;5021941;28;21064;-76
2023/04/09 06:13:17;;;;;;;17.73;16.03;;;;;;;;;;5024863;28;20459;-76
2023/04/09 06:15:46;;;;;;;18.93;17.03;;;;;;;;;;5024688;28;20482;-77
2023/04/09 06:18:27;;;;;;;19.50;17.40;;;;;;;;;;5024184;28;20440;-76
2023/04/09 06:21:02;;;;;;;19.30;17.40;;;;;;;;;;5024821;28;20476;-77
2023/04/09 06:23:30;;;;;;;19.17;17.27;;;;;;;;;;5021910;28;20456;-78
2023/04/09 06:39:02;;;;;;;17.77;16.10;;;;;;;;;;5020568;28;20536;-76
2023/04/09 06:41:32;;;;;;;17.30;15.80;;;;;;;;;;4999619;28;20462;-77
2023/04/09 06:44:01;;;;;;;17.80;16.00;;;;;;;;;;5000216;28;20447;-76
2023/04/09 06:46:31;;;;;;;15.43;13.93;;;;;;;;;;4990030;28;20449;-77
2023/04/09 06:48:59;;;;;;;17.90;16.10;;;;;;;;;;4982188;28;20454;-77
2023/04/09 06:51:27;;;;;;;16.53;14.93;;;;;;;;;;4980237;28;20453;-77
2023/04/09 06:54:04;;;;;;;16.67;15.00;;;;;;;;;;4981059;28;20457;-76
2023/04/09 06:56:39;;;;;;;17.57;15.97;;;;;;;;;;4980747;28;20512;-76
2023/04/09 06:59:08;;;;;;;17.00;15.27;;;;;;;;;;4980850;28;20487;-75
2023/04/09 07:01:48;;;;;;;16.37;14.87;;;;;;;;;;4980353;28;20441;-76
2023/04/09 07:04:16;;;;;;;16.47;14.83;;;;;;;;;;4980361;28;20457;-76
2023/04/09 07:06:47;;;;;;;16.90;15.20;;;;;;;;;;4981174;28;20496;-76
2023/04/09 07:09:17;;;;;;;16.27;14.77;;;;;;;;;;4982228;28;20458;-77
2023/04/09 07:11:46;;;;;;;16.73;15.23;;;;;;;;;;4980197;28;20460;-76
2023/04/09 07:14:15;;;;;;;16.53;14.83;;;;;;;;;;4981089;28;20465;-76
2023/04/09 07:16:45;;;;;;;16.07;14.57;;;;;;;;;;4982003;28;20466;-77
2023/04/09 07:19:13;;;;;;;16.00;13.73;;;;;;;;;;4981412;28;20543;-77
2023/04/09 07:21:48;;;;;;;15.50;14.10;;;;;;;;;;4979560;28;20457;-76
2023/04/09 07:27:04;;;;;;;15.00;13.63;;;;;;;;;;4977716;28;20449;-76
2023/04/09 07:29:31;;;;;;;14.77;13.37;;;;;;;;;;4979873;28;20445;-76
2023/04/09 07:32:03;;;;;;;16.17;14.50;;;;;;;;;;4979082;28;20476;-75
2023/04/09 07:34:31;;;;;;;14.57;13.17;;;;;;;;;;4979919;28;20786;-77
2023/04/09 07:37:08;;;;;;;13.17;11.97;;;;;;;;;;4979652;28;20454;-77
2023/04/09 07:39:41;;;;;;;13.33;11.93;;;;;;;;;;4980967;28;20487;-76
2023/04/09 07:42:15;;;;;;;13.13;11.90;;;;;;;;;;4981003;28;20484;-77
2023/04/09 07:44:44;;;;;;;12.50;11.33;;;;;;;;;;4979938;28;20531;-77
2023/04/09 07:47:11;;;;;;;11.77;10.70;;;;;;;;;;4978393;28;20524;-76
2023/04/09 07:52:49;;;;;;;12.90;11.60;;;;;;;;;;4915687;28;20445;-78
2023/04/09 07:55:17;;;;;;;12.17;11.07;;;;;;;;;;4981440;28;20449;-76
2023/04/09 07:57:47;;;;;;;12.57;11.37;;;;;;;;;;4979716;28;20519;-75
2023/04/09 08:03:18;;;;;;;11.97;10.67;;;;;;;;;;4978438;28;20441;-77
2023/04/09 08:05:45;;;;;;;11.60;10.40;;;;;;;;;;4979895;28;21035;-78
2023/04/09 08:08:19;;;;;;;12.30;11.17;;;;;;;;;;4979422;28;20434;-77
2023/04/09 08:10:46;;;;;;;11.37;10.37;;;;;;;;;;4978609;28;20426;-77
2023/04/09 08:13:18;;;;;;;10.63;9.63;;;;;;;;;;4977590;28;20520;-77
2023/04/09 08:15:45;;;;;;;10.37;9.47;;;;;;;;;;4975319;28;20488;-78
2023/04/09 08:18:13;;;;;;;11.30;10.20;;;;;;;;;;4975358;28;20433;-76
2023/04/09 08:20:59;;;;;;;9.70;8.90;;;;;;;;;;4976854;28;20481;-76
2023/04/09 08:23:32;;;;;;;10.03;9.10;;;;;;;;;;4965998;28;20445;-76
2023/04/09 08:26:08;;;;;;;10.90;9.90;;;;;;;;;;4977273;28;20469;-77
2023/04/09 08:28:40;;;;;;;11.20;10.20;;;;;;;;;;4979649;28;20437;-77
2023/04/09 08:31:14;;;;;;;10.70;9.70;;;;;;;;;;4980330;28;20449;-77
2023/04/09 08:33:48;;;;;;;10.13;9.33;;;;;;;;;;4984023;28;20444;-76
2023/04/09 08:36:40;;;;;;;10.53;9.57;;;;;;;;;;4985560;28;20473;-77
2023/04/09 08:39:22;;;;;;;10.80;9.70;;;;;;;;;;4982979;28;20531;-76
2023/04/09 08:45:34;;;;;;;10.30;9.30;;;;;;;;;;4976633;28;20497;-77
2023/04/09 08:48:14;;;;;;;10.27;9.37;;;;;;;;;;4986326;28;20453;-77
2023/04/09 08:50:54;;;;;;;9.67;8.83;;;;;;;;;;4983524;28;20485;-76
2023/04/09 08:53:27;;;;;;;9.50;8.70;;;;;;;;;;4980698;28;20461;-76
2023/04/09 08:56:12;;;;;;;;;;;;;;;;;;;;;
2023/04/09 08:58:45;;;;;;;10.87;9.87;;;;;;;;;;4980240;28;20433;-76
2023/04/09 09:01:23;;;;;;;11.07;10.07;;;;;;;;;;4978735;28;20464;-76
2023/04/09 09:04:11;;;;;;;11.90;10.87;;;;;;;;;;4977743;28;20449;-76
2023/04/09 09:06:44;;;;;;;9.70;8.80;;;;;;;;;;4976527;28;20453;-76
2023/04/09 09:09:29;;;;;;;;;;;;;;;;;;;;;
2023/04/09 09:12:14;;;;;;;9.33;8.53;;;;;;;;;;4973112;28;20453;-76
2023/04/09 09:14:49;;;;;;;9.80;9.00;;;;;;;;;;4974957;28;20476;-77
2023/04/09 09:17:31;;;;;;;8.77;8.07;;;;;;;;;;4977310;28;20551;-76
2023/04/09 09:20:21;;;;;;;8.93;8.20;;;;;;;;;;4977308;28;20481;-78
2023/04/09 09:22:58;;;;;;;9.90;9.00;;;;;;;;;;4976413;28;20543;-77
2023/04/09 10:03:22;;;;;;;9.07;8.37;;;;;;;;;;1390214;26;20640;-77
2023/04/09 10:05:58;;;;;;;9.10;8.40;;;;;;;;;;5037992;28;20482;-75
2023/04/09 10:08:37;;;;;;;8.53;7.90;;;;;;;;;;5036921;28;20450;-78
2023/04/09 10:11:06;;;;;;;8.90;8.20;;;;;;;;;;5038922;28;20533;-77
2023/04/09 10:13:35;;;;;;;8.13;7.53;;;;;;;;;;5037844;28;20450;-77
2023/04/09 10:16:03;;;;;;;9.70;9.00;;;;;;;;;;5040491;28;20996;-76
2023/04/09 10:18:37;;;;;;;8.17;7.67;;;;;;;;;;5038662;28;20434;-76
2023/04/09 10:21:11;;;;;;;8.10;7.50;;;;;;;;;;5042922;28;20474;-77
2023/04/09 10:23:41;;;;;;;8.53;7.90;;;;;;;;;;5039918;28;20458;-77
2023/04/09 10:26:26;;;;;;;8.13;7.53;;;;;;;;;;5038684;28;20553;-76
2023/04/09 10:29:12;;;;;;;6.20;5.80;;;;;;;;;;5042556;28;20454;-77
2023/04/09 10:31:50;;;;;;;7.80;7.20;;;;;;;;;;5030781;28;20478;-76
2023/04/09 10:34:24;;;;;;;14.80;13.30;;;;;;;;;;5044239;28;20454;-76
2023/04/09 10:37:03;;;;;;;7.47;6.87;;;;;;;;;;5037679;28;20544;-77
2023/04/09 10:39:40;;;;;;;6.73;6.07;;;;;;;;;;5019683;28;20502;-76
2023/04/09 10:42:21;;;;;;;6.50;6.00;;;;;;;;;;5035838;28;20478;-77
2023/04/09 10:45:06;;;;;;;5.70;5.30;;;;;;;;;;5039428;28;20546;-77
2023/04/09 10:47:40;;;;;;;5.70;5.30;;;;;;;;;;5038070;28;20470;-76
2023/04/09 10:50:22;;;;;;;5.80;5.40;;;;;;;;;;5038338;28;20443;-76
2023/04/09 10:52:59;;;;;;;5.03;4.73;;;;;;;;;;5038700;28;20470;-77
2023/04/09 10:55:37;;;;;;;4.80;4.50;;;;;;;;;;5036687;28;20438;-77
2023/04/09 10:58:17;;;;;;;5.43;5.03;;;;;;;;;;5037458;28;20462;-77
2023/04/09 11:00:52;;;;;;;5.33;5.03;;;;;;;;;;5037678;28;20477;-76
2023/04/09 11:03:30;;;;;;;5.53;5.23;;;;;;;;;;5037005;28;20459;-77
2023/04/09 11:06:08;;;;;;;6.90;6.40;;;;;;;;;;5037263;28;20474;-76
2023/04/09 11:08:48;;;;;;;6.10;5.70;;;;;;;;;;5036648;28;20482;-76
2023/04/09 11:11:18;;;;;;;5.73;5.33;;;;;;;;;;5036628;28;20440;-76
2023/04/09 11:13:46;;;;;;;5.03;4.63;;;;;;;;;;5037538;28;20541;-76
2023/04/09 11:16:21;;;;;;;5.80;5.40;;;;;;;;;;5040809;28;20484;-76
2023/04/09 11:18:52;;;;;;;5.90;5.50;;;;;;;;;;5043006;28;20533;-76
2023/04/09 11:21:32;;;;;;;6.20;5.70;;;;;;;;;;5044478;28;20481;-75
2023/04/09 11:24:05;;;;;;;5.67;5.27;;;;;;;;;;5046513;28;20450;-76
2023/04/09 11:26:41;;;;;;;4.10;3.90;;;;;;;;;;5044290;28;20470;-77
2023/04/09 11:29:12;;;;;;;5.23;4.83;;;;;;;;;;5042635;28;20434;-75
2023/04/09 11:31:51;;;;;;;6.20;5.80;;;;;;;;;;5041518;28;20762;-75
2023/04/09 11:34:23;;;;;;;6.30;5.90;;;;;;;;;;5041910;28;21012;-76
2023/04/09 11:37:13;;;;;;;6.00;5.60;;;;;;;;;;5040838;28;20494;-76
2023/04/09 11:39:41;;;;;;;5.17;4.87;;;;;;;;;;5042833;28;20457;-77
2023/04/09 11:42:09;;;;;;;5.10;4.80;;;;;;;;;;5043878;28;20529;-76
2023/04/09 11:44:48;;;;;;;5.40;5.00;;;;;;;;;;5043023;28;20516;-76
2023/04/09 11:47:17;;;;;;;6.50;6.00;;;;;;;;;;5039383;28;20536;-76
2023/04/09 11:49:50;;;;;;;6.90;6.50;;;;;;;;;;5038083;28;20461;-76
2023/04/09 11:52:20;;;;;;;6.57;6.07;;;;;;;;;;5037397;28;20549;-76
2023/04/09 11:54:50;;;;;;;6.50;6.00;;;;;;;;;;5038693;28;20528;-77
2023/04/09 11:57:20;;;;;;;6.60;6.13;;;;;;;;;;5039097;28;21144;-77
2023/04/09 11:59:58;;;;;;;5.47;5.13;;;;;;;;;;5038310;28;20478;-77
2023/04/09 12:02:31;;;;;;;6.10;5.60;;;;;;;;;;5037300;28;20454;-76
2023/04/09 12:05:03;;;;;;;5.83;5.43;;;;;;;;;;5034910;28;20462;-76
2023/04/09 12:07:36;;;;;;;5.43;5.03;;;;;;;;;;5039214;28;20477;-77
2023/04/09 12:10:06;;;;;;;5.30;5.00;;;;;;;;;;5039363;28;20538;-75
2023/04/09 12:12:41;;;;;;;5.80;5.40;;;;;;;;;;5037526;28;20527;-77
2023/04/09 12:15:17;;;;;;;5.07;4.77;;;;;;;;;;5039425;28;20449;-76
2023/04/09 12:17:47;;;;;;;5.40;5.10;;;;;;;;;;5038128;28;20478;-76
2023/04/09 12:20:27;;;;;;;6.00;5.60;;;;;;;;;;5036607;28;20470;-75
2023/04/09 12:22:56;;;;;;;6.20;5.70;;;;;;;;;;5037292;28;20462;-76
2023/04/09 12:25:38;;;;;;;5.77;5.37;;;;;;;;;;5039475;28;20454;-75
2023/04/09 12:28:07;;;;;;;5.17;4.87;;;;;;;;;;5036724;28;20459;-77
2023/04/09 12:30:38;;;;;;;5.23;4.93;;;;;;;;;;5036574;28;20481;-76
2023/04/09 12:33:11;;;;;;;5.50;5.20;;;;;;;;;;5036363;28;20859;-77
2023/04/09 12:35:43;;;;;;;5.60;5.20;;;;;;;;;;5038652;28;20477;-77
2023/04/09 12:38:20;;;;;;;6.00;5.60;;;;;;;;;;5042415;28;20466;-76
2023/04/09 12:41:00;;;;;;;6.17;5.77;;;;;;;;;;5038060;28;20577;-76
2023/04/09 12:43:31;;;;;;;5.67;5.27;;;;;;;;;;5035376;28;20454;-76
2023/04/09 12:46:06;;;;;;;5.53;5.13;;;;;;;;;;5035302;28;20447;-76
2023/04/09 12:48:35;;;;;;;5.30;5.00;;;;;;;;;;5037372;28;20434;-76
2023/04/09 12:51:06;;;;;;;5.33;5.00;;;;;;;;;;5032522;28;20540;-76
2023/04/09 12:53:36;;;;;;;4.90;4.60;;;;;;;;;;5033594;28;20488;-77
2023/04/09 12:56:04;;;;;;;5.83;5.43;;;;;;;;;;5032882;28;20501;-76
2023/04/09 12:58:32;;;;;;;6.13;5.63;;;;;;;;;;5033732;28;20508;-77
2023/04/09 13:01:00;;;;;;;5.90;5.40;;;;;;;;;;5033504;28;20481;-76
2023/04/09 13:03:31;;;;;;;6.47;6.07;;;;;;;;;;5033504;28;21031;-76
2023/04/09 13:06:07;;;;;;;5.90;5.50;;;;;;;;;;5034213;28;20477;-76
2023/04/09 13:08:54;;;;;;;6.80;6.30;;;;;;;;;;5034256;28;20481;-76
2023/04/09 13:11:30;;;;;;;6.37;5.97;;;;;;;;;;5032597;28;20450;-76
2023/04/09 13:14:00;;;;;;;5.13;4.83;;;;;;;;;;5031775;28;20458;-76
2023/04/09 13:16:30;;;;;;;5.00;4.70;;;;;;;;;;5032185;28;20540;-76
2023/04/09 13:19:13;;;;;;;4.90;4.50;;;;;;;;;;5033087;28;20461;-76
2023/04/09 13:21:57;;;;;;;5.60;5.20;;;;;;;;;;5033564;28;20569;-76
2023/04/09 13:24:30;;;;;;;4.70;4.30;;;;;;;;;;5032589;28;20558;-76
2023/04/09 13:27:01;;;;;;;4.40;4.10;;;;;;;;;;5033174;28;20564;-76
2023/04/09 13:29:30;;;;;;;4.93;4.63;;;;;;;;;;5033566;28;20478;-75
2023/04/09 13:32:01;;;;;;;6.00;5.60;;;;;;;;;;5034443;28;20525;-75
2023/04/09 13:34:35;;;;;;;5.30;5.00;;;;;;;;;;5034414;28;20460;-75
2023/04/09 13:37:03;;;;;;;4.87;4.47;;;;;;;;;;5038761;28;20519;-75
2023/04/09 13:39:50;;;;;;;5.90;5.50;;;;;;;;;;5038132;28;20454;-76
2023/04/09 13:42:28;;;;;;;4.87;4.57;;;;;;;;;;5036885;28;20481;-75
2023/04/09 13:45:10;;;;;;;5.97;5.57;;;;;;;;;;5038841;28;20425;-75
2023/04/09 13:47:41;;;;;;;5.00;4.70;;;;;;;;;;5040652;28;20520;-75
2023/04/09 13:50:18;;;;;;;5.70;5.30;;;;;;;;;;5041407;28;20466;-76
2023/04/09 13:52:50;;;;;;;5.00;4.60;;;;;;;;;;5040234;28;20450;-77
2023/04/09 13:55:33;;;;;;;;;;;;;;;;;;;;;
2023/04/09 13:58:09;;;;;;;4.83;4.53;;;;;;;;;;5040032;28;20419;-77
2023/04/09 14:00:42;;;;;;;4.93;4.63;;;;;;;;;;5038773;28;20482;-76
2023/04/09 14:03:13;;;;;;;5.40;5.00;;;;;;;;;;5042857;28;21021;-76
2023/04/09 14:05:51;;;;;;;5.37;4.97;;;;;;;;;;5044762;28;20553;-75
2023/04/09 14:08:26;;;;;;;5.33;4.93;;;;;;;;;;5047112;28;20450;-75
2023/04/09 14:11:14;;;;;;;4.40;4.20;;;;;;;;;;5045176;28;20442;-75
2023/04/09 14:13:44;;;;;;;4.90;4.60;;;;;;;;;;5045169;28;20454;-77
2023/04/09 14:16:13;;;;;;;4.80;4.50;;;;;;;;;;5029157;28;20474;-75
2023/04/09 14:18:56;;;;;;;5.40;5.00;;;;;;;;;;5044974;28;20504;-76
2023/04/09 14:21:30;;;;;;;5.30;4.93;;;;;;;;;;5044837;28;20538;-76
2023/04/09 14:24:01;;;;;;;5.27;4.77;;;;;;;;;;5043342;28;20465;-75
2023/04/09 14:26:55;;;;;;;4.70;4.40;;;;;;;;;;5043513;28;20568;-76
2023/04/09 14:29:25;;;;;;;6.23;5.80;;;;;;;;;;5040749;28;20446;-75
2023/04/09 14:31:56;;;;;;;5.67;5.27;;;;;;;;;;5040694;28;20442;-76
2023/04/09 14:34:31;;;;;;;6.00;5.60;;;;;;;;;;5039524;28;20469;-76
2023/04/09 14:37:03;;;;;;;5.90;5.50;;;;;;;;;;5042009;28;20490;-75
2023/04/09 14:39:34;;;;;;;5.50;5.10;;;;;;;;;;5041745;28;20454;-76
2023/04/09 14:42:08;;;;;;;6.30;5.80;;;;;;;;;;5040312;28;20491;-75
2023/04/09 14:47:35;;;;;;;5.43;5.13;;;;;;;;;;5045093;28;20477;-75
2023/04/09 14:50:11;;;;;;;5.63;5.23;;;;;;;;;;5041507;28;20434;-76
2023/04/09 14:52:47;;;;;;;5.23;4.83;;;;;;;;;;5041653;28;20823;-77
2023/04/09 14:55:16;;;;;;;5.37;4.97;;;;;;;;;;5039020;28;20454;-76
2023/04/09 14:57:49;;;;;;;5.67;5.30;;;;;;;;;;5036606;28;20423;-76
2023/04/09 15:00:21;;;;;;;5.03;4.63;;;;;;;;;;5034757;28;20469;-76
2023/04/09 15:03:00;;;;;;;5.70;5.30;;;;;;;;;;5034602;28;20501;-76
2023/04/09 15:05:43;;;;;;;6.33;5.83;;;;;;;;;;5034346;28;20521;-77
2023/04/09 15:08:15;;;;;;;6.37;5.90;;;;;;;;;;5034211;28;20427;-76
2023/04/09 15:10:49;;;;;;;6.60;6.10;;;;;;;;;;5034532;28;20938;-77
2023/04/09 15:13:26;;;;;;;6.53;6.03;;;;;;;;;;5033018;28;20481;-79
2023/04/09 15:16:11;;;;;;;7.13;6.57;;;;;;;;;;5033928;28;20478;-76
2023/04/09 15:21:46;;;;;;;6.70;6.10;;;;;;;;;;5032744;28;20466;-77
2023/04/09 15:24:29;;;;;;;;;;;;;;;;;;;;;
2023/04/09 15:27:07;;;;;;;6.40;5.93;;;;;;;;;;5032391;28;20493;-76
2023/04/09 15:29:43;;;;;;;6.73;6.23;;;;;;;;;;5032285;28;20496;-76
2023/04/09 15:32:27;;;;;;;5.57;5.17;;;;;;;;;;5033022;28;20455;-75
2023/04/09 15:35:00;;;;;;;5.67;5.27;;;;;;;;;;5032005;28;20473;-76
2023/04/09 15:37:38;;;;;;;5.30;4.90;;;;;;;;;;5032645;28;20475;-76
2023/04/09 15:40:22;;;;;;;5.27;4.87;;;;;;;;;;5032210;28;20480;-76
2023/04/09 15:42:56;;;;;;;6.80;6.20;;;;;;;;;;5032296;28;20474;-77
2023/04/09 15:45:32;;;;;;;6.30;5.80;;;;;;;;;;5032543;28;20455;-76
2023/04/09 15:48:02;;;;;;;5.97;5.50;;;;;;;;;;5033699;28;20516;-77
2023/04/09 15:50:39;;;;;;;7.13;6.60;;;;;;;;;;5033872;28;20822;-77
2023/04/09 15:53:08;;;;;;;6.43;5.93;;;;;;;;;;5034393;28;20489;-76
2023/04/09 15:55:40;;;;;;;6.30;5.80;;;;;;;;;;5034465;28;20981;-76
2023/04/09 15:58:13;;;;;;;6.90;6.40;;;;;;;;;;5034260;28;20478;-76
2023/04/09 16:00:49;;;;;;;6.80;6.30;;;;;;;;;;5034482;28;20565;-76
2023/04/09 16:03:40;;;;;;;6.03;5.57;;;;;;;;;;5033241;28;20473;-76
2023/04/09 16:06:09;;;;;;;6.90;6.30;;;;;;;;;;5033836;28;20485;-76
2023/04/09 16:08:40;;;;;;;6.50;6.00;;;;;;;;;;5033010;28;20458;-77
2023/04/09 16:11:16;;;;;;;6.23;5.73;;;;;;;;;;5014461;28;20428;-77
2023/04/09 16:13:45;;;;;;;5.43;5.03;;;;;;;;;;5014084;28;20458;-76
2023/04/09 16:16:15;;;;;;;7.10;6.50;;;;;;;;;;5014144;28;20541;-77
2023/04/09 16:18:44;;;;;;;7.07;6.47;;;;;;;;;;5013684;28;20451;-77
2023/04/09 16:21:15;;;;;;;6.50;6.10;;;;;;;;;;5013304;28;20515;-77
2023/04/09 16:23:46;;;;;;;6.93;6.43;;;;;;;;;;5011995;28;20462;-77
2023/04/09 16:26:20;;;;;;;6.93;6.43;;;;;;;;;;5013542;28;20550;-77
2023/04/09 16:29:09;;;;;;;6.57;6.17;;;;;;;;;;5013879;28;21002;-76
2023/04/09 16:31:56;;;;;;;6.90;6.40;;;;;;;;;;5014714;28;20456;-77
2023/04/09 16:34:30;;;;;;;6.23;5.73;;;;;;;;;;5016091;28;20451;-77
2023/04/09 16:37:11;;;;;;;6.33;5.83;;;;;;;;;;5015691;28;20527;-75
2023/04/09 16:39:49;;;;;;;6.23;5.77;;;;;;;;;;5016820;28;20441;-76
2023/04/09 16:42:31;;;;;;;6.50;6.00;;;;;;;;;;5017134;28;20528;-76
2023/04/09 16:45:25;;;;;;;6.90;6.40;;;;;;;;;;5016667;28;20562;-76
2023/04/09 16:47:58;;;;;;;6.83;6.30;;;;;;;;;;5016185;28;20451;-76
2023/04/09 16:50:33;;;;;;;7.00;6.47;;;;;;;;;;5017800;28;20482;-75
2023/04/09 16:53:03;;;;;;;5.97;5.47;;;;;;;;;;5020097;28;20455;-76
2023/04/09 16:55:38;;;;;;;6.20;5.77;;;;;;;;;;5017920;28;20459;-75
2023/04/09 16:58:06;;;;;;;6.40;5.97;;;;;;;;;;5015389;28;20491;-77
2023/04/09 17:00:42;;;;;;;5.90;5.40;;;;;;;;;;5025395;28;20656;-77
2023/04/09 17:24:35;;;;;;;6.87;6.20;;;;;;;;;;4972408;28;20543;-77
2023/04/09 17:27:10;;;;;;;5.40;5.00;;;;;;;;;;5011677;28;20985;-75
2023/04/09 17:29:46;;;;;;;6.43;5.93;;;;;;;;;;5029836;28;20533;-76
2023/04/09 17:32:24;;;;;;;6.80;6.30;;;;;;;;;;5030914;28;20446;-76
2023/04/09 17:35:06;;;;;;;6.80;6.13;;;;;;;;;;5031266;28;20458;-76
2023/04/09 17:37:39;;;;;;;6.60;6.00;;;;;;;;;;5032712;28;20467;-77
2023/04/09 17:40:17;;;;;;;6.30;5.83;;;;;;;;;;5034255;28;20480;-77
2023/04/09 17:42:53;;;;;;;5.97;5.53;;;;;;;;;;5033915;28;20477;-78
2023/04/09 17:45:33;;;;;;;6.30;5.80;;;;;;;;;;5033398;28;20457;-75
2023/04/09 17:48:07;;;;;;;7.07;6.47;;;;;;;;;;5032871;28;20465;-76
2023/04/09 17:50:53;;;;;;;6.47;5.97;;;;;;;;;;5033002;28;20454;-77
2023/04/09 17:53:37;;;;;;;6.70;6.20;;;;;;;;;;5035382;28;20453;-76
2023/04/09 17:56:13;;;;;;;6.87;6.37;;;;;;;;;;5035457;28;20485;-76
2023/04/09 17:58:48;;;;;;;7.10;6.50;;;;;;;;;;5034662;28;20461;-79
2023/04/09 18:01:31;;;;;;;7.00;6.30;;;;;;;;;;5033790;28;20461;-77
2023/04/09 18:06:55;;;;;;;7.43;6.83;;;;;;;;;;5030015;28;20508;-78
2023/04/09 18:09:24;;;;;;;7.53;6.93;;;;;;;;;;5033893;28;20454;-77
2023/04/09 18:11:56;;;;;;;7.20;6.60;;;;;;;;;;5035380;28;20438;-78
2023/04/09 18:14:33;;;;;;;8.03;7.43;;;;;;;;;;5035946;28;20450;-79
2023/04/09 18:17:19;;;;;;;7.20;6.70;;;;;;;;;;5034830;28;20532;-76
2023/04/09 18:19:52;;;;;;;7.67;6.97;;;;;;;;;;5038084;28;20434;-77
2023/04/09 18:22:26;;;;;;;9.93;8.90;;;;;;;;;;5040331;28;20505;-77
2023/04/09 18:24:58;;;;;;;8.10;7.40;;;;;;;;;;5040373;28;20483;-78
2023/04/09 18:27:31;;;;;;;7.50;6.90;;;;;;;;;;5040918;28;20937;-76
2023/04/09 18:30:05;;;;;;;7.83;7.20;;;;;;;;;;5039577;28;20496;-78
2023/04/09 18:32:39;;;;;;;8.00;7.40;;;;;;;;;;5039289;28;20458;-79
2023/04/09 18:35:09;;;;;;;8.87;8.17;;;;;;;;;;5038872;28;20462;-77
2023/04/09 18:37:38;;;;;;;7.87;7.17;;;;;;;;;;5036721;28;20536;-78
2023/04/09 18:40:14;;;;;;;8.20;7.40;;;;;;;;;;5037471;28;20427;-77
2023/04/09 18:42:45;;;;;;;7.53;7.00;;;;;;;;;;5038512;28;20480;-77